Time;durP1;ratioP1;P1;durP2;ratioP2;P2;SDS_P1;SDS_P2;PMS_P1;PMS_P2;Temp;Humidity;BMP_temperature;BMP_pressure;BME280_temperature;BME280_humidity;BME280_pressure;Samples;Min_cycle;Max_cycle;Signal;HPM_P1;HPM_P2
2022/11/24 00:00:18;;;;;;;8.15;4.65;;;;;;;10.06;100.00;102165.81;4949877;28;20055;-80
2022/11/24 00:02:54;;;;;;;9.68;5.03;;;;;;;10.02;100.00;102176.78;4944358;28;20051;-80
2022/11/24 00:05:23;;;;;;;14.00;5.95;;;;;;;10.01;100.00;102177.56;4950093;28;20059;-80
2022/11/24 00:07:52;;;;;;;10.45;5.60;;;;;;;10.01;100.00;102181.06;4948382;28;20154;-80
2022/11/24 00:10:22;;;;;;;15.45;6.38;;;;;;;10.00;100.00;102180.97;4947656;28;20067;-81
2022/11/24 00:12:54;;;;;;;12.02;5.65;;;;;;;9.98;100.00;102183.47;4948449;28;20182;-79
2022/11/24 00:15:23;;;;;;;8.27;5.05;;;;;;;9.96;100.00;102179.00;4944501;28;20047;-80
2022/11/24 00:17:51;;;;;;;10.90;5.22;;;;;;;9.95;100.00;102182.41;4948039;28;20607;-80
2022/11/24 00:20:20;;;;;;;12.63;5.35;;;;;;;9.93;100.00;102176.28;4947951;28;20118;-81
2022/11/24 00:22:51;;;;;;;9.70;4.57;;;;;;;9.93;100.00;102184.91;4949370;28;20107;-78
2022/11/24 00:25:24;;;;;;;8.23;4.68;;;;;;;9.89;100.00;102177.78;4947000;28;20052;-81
2022/11/24 00:27:53;;;;;;;8.23;4.15;;;;;;;9.92;100.00;102177.97;4947983;28;20450;-79
2022/11/24 00:30:22;;;;;;;11.40;4.80;;;;;;;9.89;100.00;102174.31;4947047;28;20055;-80
2022/11/24 00:32:59;;;;;;;8.93;4.75;;;;;;;9.83;100.00;102180.94;4947991;28;20066;-78
2022/11/24 00:35:28;;;;;;;11.27;5.03;;;;;;;9.81;100.00;102190.31;4948495;28;20047;-77
2022/11/24 00:37:57;;;;;;;12.82;4.82;;;;;;;9.84;100.00;102199.91;4949800;28;20062;-76
2022/11/24 00:40:27;;;;;;;6.35;4.30;;;;;;;9.83;100.00;102204.22;4949759;28;20876;-78
2022/11/24 00:43:03;;;;;;;9.02;4.57;;;;;;;9.84;100.00;102208.56;4948587;28;20058;-77
2022/11/24 00:45:31;;;;;;;8.23;4.75;;;;;;;9.85;100.00;102209.47;4946692;28;20043;-78
2022/11/24 00:48:00;;;;;;;17.85;6.93;;;;;;;9.84;100.00;102205.97;4949726;28;20055;-79
2022/11/24 00:50:29;;;;;;;15.98;6.18;;;;;;;9.84;100.00;102212.84;4947173;28;20138;-75
2022/11/24 00:53:04;;;;;;;11.93;6.13;;;;;;;9.83;100.00;102204.22;4952928;28;20457;-78
2022/11/24 00:55:34;;;;;;;10.93;5.28;;;;;;;9.83;100.00;102204.22;4956593;28;20073;-79
2022/11/24 00:58:03;;;;;;;12.30;5.78;;;;;;;9.83;100.00;102203.31;4955126;28;20047;-77
2022/11/24 01:00:31;;;;;;;12.75;4.93;;;;;;;9.81;100.00;102200.66;4948199;28;20043;-80
2022/11/24 01:03:08;;;;;;;11.15;4.50;;;;;;;9.82;100.00;102201.53;4954050;28;20069;-80
2022/11/24 01:05:38;;;;;;;18.38;6.65;;;;;;;9.81;100.00;102200.66;4947886;28;20086;-78
2022/11/24 01:08:07;;;;;;;8.40;5.00;;;;;;;9.80;100.00;102197.97;4953577;28;20107;-78
2022/11/24 01:10:47;;;;;;;11.18;5.95;;;;;;;9.77;100.00;102206.44;4948629;28;20054;-80
2022/11/24 01:13:16;;;;;;;13.98;6.53;;;;;;;9.68;100.00;102197.28;4948581;28;20050;-77
2022/11/24 01:15:45;;;;;;;15.45;6.97;;;;;;;9.73;100.00;102207.06;4947205;28;20055;-75
2022/11/24 01:18:13;;;;;;;13.73;6.20;;;;;;;9.70;100.00;102190.50;4953361;28;20094;-77
2022/11/24 01:20:51;;;;;;;13.25;5.45;;;;;;;9.65;100.00;102182.50;4953012;28;20062;-80
2022/11/24 01:23:20;;;;;;;11.07;6.03;;;;;;;9.62;100.00;102179.72;4942632;28;20176;-79
2022/11/24 01:25:50;;;;;;;11.02;5.65;;;;;;;9.63;100.00;102168.59;4950287;28;20039;-78
2022/11/24 01:28:21;;;;;;;13.60;5.97;;;;;;;9.65;100.00;102169.59;4951895;28;20462;-79
2022/11/24 01:30:58;;;;;;;11.98;5.70;;;;;;;9.66;100.00;102168.75;4954512;28;20051;-77
2022/11/24 01:33:28;;;;;;;12.43;6.38;;;;;;;9.66;100.00;102168.75;4953348;28;20061;-80
2022/11/24 01:35:58;;;;;;;17.08;7.18;;;;;;;9.63;100.00;102168.59;4951709;28;20054;-79
2022/11/24 01:38:31;;;;;;;13.65;6.90;;;;;;;9.60;100.00;102178.78;4953008;28;20126;-77
2022/11/24 01:41:07;;;;;;;11.43;6.18;;;;;;;9.59;100.00;102179.56;4955179;28;20074;-83
2022/11/24 01:43:36;;;;;;;16.58;7.55;;;;;;;9.58;100.00;102180.38;4948271;28;20103;-84
2022/11/24 01:46:18;;;;;;;16.80;6.80;;;;;;;9.57;100.00;102173.41;4948560;28;20462;-85
2022/11/24 01:48:52;;;;;;;18.70;8.17;;;;;;;9.56;100.00;102174.22;4948863;28;20066;-80
2022/11/24 01:51:24;;;;;;;19.38;7.97;;;;;;;9.55;100.00;102175.03;4950870;28;20576;-86
2022/11/24 01:53:59;;;;;;;28.23;7.78;;;;;;;9.51;100.00;102168.81;4953064;28;20051;-82
2022/11/24 01:56:30;;;;;;;16.77;6.63;;;;;;;9.52;100.00;102169.69;4948935;28;20513;-84
2022/11/24 01:59:12;;;;;;;;;;;;;;;;;;;;;
2022/11/24 02:01:41;;;;;;;13.48;6.40;;;;;;;9.48;100.00;102168.63;4951979;28;20047;-85
2022/11/24 02:04:13;;;;;;;12.50;6.32;;;;;;;9.43;100.00;102170.94;4955363;28;20047;-86
2022/11/24 02:06:45;;;;;;;17.77;5.90;;;;;;;9.40;100.00;102165.59;4951510;28;20062;-84
2022/11/24 02:09:20;;;;;;;14.70;6.13;;;;;;;9.35;100.00;102164.47;4952936;28;20401;-81
2022/11/24 02:11:52;;;;;;;12.88;6.15;;;;;;;9.30;100.00;102173.66;4944443;28;20090;-82
2022/11/24 02:14:22;;;;;;;12.93;5.85;;;;;;;9.27;100.00;102178.63;4943462;28;20191;-86
2022/11/24 02:16:54;;;;;;;13.65;6.70;;;;;;;9.26;100.00;102175.97;4952425;28;20051;-83
2022/11/24 02:19:35;;;;;;;15.47;6.30;;;;;;;9.24;100.00;102175.88;4949417;28;20472;-84
2022/11/24 02:22:13;;;;;;;13.48;6.65;;;;;;;9.17;100.00;102168.56;4955200;28;20079;-84
2022/11/24 02:24:48;;;;;;;11.63;6.00;;;;;;;9.05;100.00;102161.00;4954001;28;20047;-84
2022/11/24 02:27:19;;;;;;;14.52;6.85;;;;;;;8.97;100.00;102157.97;4952418;28;20512;-85
2022/11/24 02:29:53;;;;;;;11.45;5.35;;;;;;;8.94;100.00;102156.91;4948943;28;20051;-83
2022/11/24 02:32:24;;;;;;;10.88;4.93;;;;;;;8.89;100.00;102155.75;4942675;28;20051;-83
2022/11/24 02:35:05;;;;;;;10.93;4.78;;;;;;;8.83;100.00;102148.53;4949927;28;20042;-86
2022/11/24 02:37:34;;;;;;;13.25;4.45;;;;;;;8.80;100.00;102146.66;4945754;28;20043;-83
2022/11/24 02:40:04;;;;;;;12.50;6.68;;;;;;;8.76;100.00;102130.91;4947234;28;20059;-83
2022/11/24 02:42:38;;;;;;;9.82;4.65;;;;;;;8.88;100.00;102152.25;4950879;28;20051;-82
2022/11/24 02:45:11;;;;;;;12.73;4.78;;;;;;;8.90;100.00;102150.66;4950527;28;20043;-85
2022/11/24 02:47:39;;;;;;;;;;;;;;;8.93;100.00;102156.03;4944581;28;20405;-83
2022/11/24 02:50:08;;;;;;;12.75;5.55;;;;;;;8.93;100.00;102150.88;4949169;28;19926;-89
2022/11/24 02:52:37;;;;;;;13.20;5.38;;;;;;;8.97;100.00;102149.34;4948907;28;20542;-90
2022/11/24 02:55:16;;;;;;;;;;;;;;;;;;;;;
2022/11/24 02:57:46;;;;;;;12.38;5.78;;;;;;;9.00;100.00;102157.25;4945817;28;20055;-82
2022/11/24 03:00:17;;;;;;;14.70;6.35;;;;;;;9.00;100.00;102158.16;4948895;28;20094;-87
2022/11/24 03:02:45;;;;;;;13.20;5.82;;;;;;;9.01;100.00;102153.88;4947630;28;20506;-88
2022/11/24 03:05:18;;;;;;;11.73;5.75;;;;;;;9.00;100.00;102158.16;4951179;28;20923;-79
2022/11/24 03:07:47;;;;;;;14.57;6.07;;;;;;;9.00;100.00;102157.25;4952794;28;20078;-84
2022/11/24 03:10:17;;;;;;;11.35;5.80;;;;;;;9.01;100.00;102169.38;4946186;28;20051;-82
2022/11/24 03:12:47;;;;;;;13.93;6.55;;;;;;;9.01;100.00;102170.25;4949002;28;20105;-82
2022/11/24 03:15:19;;;;;;;22.85;7.80;;;;;;;9.01;100.00;102169.38;4941550;28;20074;-80
2022/11/24 03:17:48;;;;;;;12.82;6.13;;;;;;;9.00;100.00;102171.06;4947759;28;20043;-82
2022/11/24 03:20:17;;;;;;;10.05;4.82;;;;;;;8.92;100.00;102168.84;4949903;28;20053;-84
2022/11/24 03:22:46;;;;;;;15.75;6.15;;;;;;;8.89;100.00;102172.13;4948168;28;20051;-84
2022/11/24 03:25:18;;;;;;;15.73;5.65;;;;;;;8.91;100.00;102165.38;4948626;28;20087;-87
2022/11/24 03:27:51;;;;;;;9.80;5.00;;;;;;;8.88;100.00;102160.00;4942451;28;20046;-81
2022/11/24 03:30:20;;;;;;;10.55;5.50;;;;;;;8.84;100.00;102154.56;4936013;28;20454;-80
2022/11/24 03:32:49;;;;;;;13.65;5.85;;;;;;;8.82;100.00;102151.94;4934646;28;20048;-79
2022/11/24 03:35:19;;;;;;;14.65;6.40;;;;;;;8.84;100.00;102159.75;4945473;28;20047;-79
2022/11/24 03:37:50;;;;;;;17.38;6.60;;;;;;;8.84;100.00;102152.88;4948018;28;20093;-79
2022/11/24 03:40:19;;;;;;;13.05;6.22;;;;;;;8.83;100.00;102148.53;4943700;28;20051;-76
2022/11/24 03:42:47;;;;;;;10.95;5.75;;;;;;;8.78;100.00;102152.53;4948456;28;20051;-78
2022/11/24 03:45:18;;;;;;;11.85;4.88;;;;;;;8.75;100.00;102157.50;4943714;28;20047;-79
2022/11/24 03:47:52;;;;;;;16.60;6.55;;;;;;;8.74;100.00;102159.19;4944442;28;20055;-78
2022/11/24 03:50:20;;;;;;;11.70;5.75;;;;;;;8.76;100.00;102167.03;4943179;28;20089;-77
2022/11/24 03:52:49;;;;;;;11.95;5.68;;;;;;;8.75;100.00;102166.16;4946754;28;20424;-78
2022/11/24 03:55:18;;;;;;;16.67;6.65;;;;;;;8.75;100.00;102170.41;4946898;28;20163;-79
2022/11/24 03:57:53;;;;;;;9.90;5.53;;;;;;;8.75;100.00;102165.25;4943652;28;20276;-80
2022/11/24 04:00:23;;;;;;;11.25;5.85;;;;;;;8.73;100.00;102169.44;4936173;28;20095;-79
2022/11/24 04:02:52;;;;;;;15.23;5.78;;;;;;;8.72;100.00;102165.06;4939244;28;20083;-80
2022/11/24 04:05:21;;;;;;;13.27;5.95;;;;;;;8.71;100.00;102158.13;4942896;28;20053;-80
2022/11/24 04:07:55;;;;;;;18.80;6.85;;;;;;;8.73;100.00;102156.53;4947905;28;20560;-79
2022/11/24 04:10:24;;;;;;;11.35;5.88;;;;;;;8.74;100.00;102153.16;4943091;28;20738;-79
2022/11/24 04:12:52;;;;;;;16.98;5.93;;;;;;;8.74;100.00;102148.88;4945380;28;20134;-80
2022/11/24 04:15:22;;;;;;;9.57;5.28;;;;;;;8.73;100.00;102147.09;4945575;28;20501;-79
2022/11/24 04:17:57;;;;;;;11.20;5.80;;;;;;;8.69;100.00;102150.28;4946653;28;20043;-79
2022/11/24 04:20:26;;;;;;;8.80;4.03;;;;;;;8.63;100.00;102143.88;4947632;28;20517;-80
2022/11/24 04:22:54;;;;;;;14.05;5.97;;;;;;;8.62;100.00;102149.84;4945671;28;20058;-80
2022/11/24 04:25:23;;;;;;;15.75;6.00;;;;;;;8.62;100.00;102147.28;4943723;28;21194;-78
2022/11/24 04:27:56;;;;;;;11.40;5.70;;;;;;;8.61;100.00;102146.34;4948713;28;20482;-79
2022/11/24 04:30:30;;;;;;;10.13;5.38;;;;;;;8.62;100.00;102152.44;4947104;28;20078;-78
2022/11/24 04:32:58;;;;;;;14.65;7.07;;;;;;;8.64;100.00;102148.25;4950593;28;20090;-79
2022/11/24 04:35:27;;;;;;;11.70;5.95;;;;;;;8.64;100.00;102143.09;4953717;28;20832;-80
2022/11/24 04:37:56;;;;;;;14.30;5.82;;;;;;;8.64;100.00;102137.94;4947421;28;20143;-80
2022/11/24 04:40:26;;;;;;;17.15;6.90;;;;;;;8.62;100.00;102137.84;4952257;28;20138;-81
2022/11/24 04:42:55;;;;;;;12.48;4.70;;;;;;;8.60;100.00;102140.31;4953220;28;20059;-79
2022/11/24 04:45:26;;;;;;;11.10;5.13;;;;;;;8.59;100.00;102148.88;4941856;28;20641;-81
2022/11/24 04:48:03;;;;;;;13.35;4.90;;;;;;;8.56;100.00;102133.19;4944246;28;21580;-80
2022/11/24 04:50:32;;;;;;;10.05;3.85;;;;;;;8.55;100.00;102136.56;4946959;28;20058;-81
2022/11/24 04:53:00;;;;;;;10.95;5.30;;;;;;;8.53;100.00;102140.75;4944711;28;20477;-80
2022/11/24 04:55:29;;;;;;;11.18;4.65;;;;;;;8.53;100.00;102143.34;4949453;28;20051;-80
2022/11/24 04:58:06;;;;;;;7.32;4.50;;;;;;;8.51;100.00;102138.88;4950872;28;20055;-82
2022/11/24 05:00:37;;;;;;;8.65;4.15;;;;;;;8.51;100.00;102142.34;4947544;28;20054;-81
2022/11/24 05:03:06;;;;;;;12.00;4.70;;;;;;;8.50;100.00;102148.31;4948635;28;20051;-80
2022/11/24 05:05:41;;;;;;;15.32;4.63;;;;;;;8.47;100.00;102137.78;4950345;28;20166;-80
2022/11/24 05:08:10;;;;;;;11.77;3.90;;;;;;;8.44;100.00;102135.03;4947190;28;20138;-80
2022/11/24 05:10:38;;;;;;;8.50;4.78;;;;;;;8.45;100.00;102133.34;4948527;28;20077;-82
2022/11/24 05:13:10;;;;;;;9.68;4.93;;;;;;;8.44;100.00;102139.31;4948339;28;20055;-80
2022/11/24 05:15:49;;;;;;;11.63;5.28;;;;;;;8.41;100.00;102134.88;4933900;28;20506;-80
2022/11/24 05:18:19;;;;;;;16.25;5.22;;;;;;;8.39;100.00;102139.00;4942053;28;20126;-79
2022/11/24 05:20:48;;;;;;;15.60;5.30;;;;;;;8.37;100.00;102141.47;4949382;28;20051;-78
2022/11/24 05:23:17;;;;;;;10.23;4.82;;;;;;;8.36;100.00;102144.88;4950715;28;20059;-77
2022/11/24 05:25:49;;;;;;;9.43;4.93;;;;;;;8.36;100.00;102154.28;4940731;28;20079;-77
2022/11/24 05:28:18;;;;;;;9.77;5.03;;;;;;;8.34;100.00;102153.31;4949439;28;20466;-80
2022/11/24 05:30:49;;;;;;;10.07;4.35;;;;;;;8.32;100.00;102162.66;4946494;28;20106;-77
2022/11/24 05:33:21;;;;;;;15.20;4.82;;;;;;;8.31;100.00;102155.69;4951263;28;20061;-76
2022/11/24 05:35:53;;;;;;;10.20;4.82;;;;;;;8.30;100.00;102165.13;4949348;28;20047;-77
2022/11/24 05:38:22;;;;;;;13.40;4.85;;;;;;;8.26;100.00;102151.94;4938928;28;20627;-76
2022/11/24 05:40:51;;;;;;;29.98;12.93;;;;;;;8.28;100.00;102155.50;4949470;28;21182;-77
2022/11/24 05:43:20;;;;;;;40.05;19.35;;;;;;;8.26;100.00;102163.16;4949741;28;20047;-74
2022/11/24 05:46:00;;;;;;;38.85;17.73;;;;;;;8.21;100.00;102153.34;4946855;28;20710;-76
2022/11/24 05:48:29;;;;;;;12.98;6.97;;;;;;;8.27;100.00;102156.28;4949599;28;20136;-76
2022/11/24 05:50:59;;;;;;;13.38;6.47;;;;;;;8.29;100.00;102154.69;4948879;28;20063;-79
2022/11/24 05:53:33;;;;;;;9.13;4.53;;;;;;;8.30;100.00;102157.38;4949553;28;20707;-75
2022/11/24 05:56:04;;;;;;;10.23;4.90;;;;;;;8.31;100.00;102150.53;4947636;28;20552;-77
2022/11/24 05:58:33;;;;;;;13.47;4.97;;;;;;;8.31;100.00;102146.25;4952400;28;20623;-78
2022/11/24 06:01:09;;;;;;;12.63;4.95;;;;;;;8.25;100.00;102125.28;4946547;28;20053;-78
2022/11/24 06:03:38;;;;;;;8.93;5.32;;;;;;;8.25;100.00;102134.72;4949236;28;20062;-77
2022/11/24 06:06:07;;;;;;;10.55;5.05;;;;;;;8.22;100.00;102149.97;4949908;28;20063;-74
2022/11/24 06:08:36;;;;;;;10.15;4.68;;;;;;;8.24;100.00;102153.53;4946245;28;20047;-77
2022/11/24 06:11:17;;;;;;;10.15;4.07;;;;;;;8.22;100.00;102155.13;4952347;28;20505;-77
2022/11/24 06:13:47;;;;;;;9.98;4.28;;;;;;;8.21;100.00;102154.25;4948852;28;20051;-78
2022/11/24 06:16:18;;;;;;;12.27;5.28;;;;;;;8.20;100.00;102152.47;4946968;28;20111;-78
2022/11/24 06:18:46;;;;;;;7.30;4.32;;;;;;;8.17;100.00;102135.09;4950085;28;20050;-76
2022/11/24 06:21:16;;;;;;;7.75;4.32;;;;;;;8.16;100.00;102135.03;4951094;28;20085;-77
2022/11/24 06:23:49;;;;;;;8.40;4.13;;;;;;;8.14;100.00;102137.50;4946960;28;20051;-77
2022/11/24 06:26:18;;;;;;;10.18;3.88;;;;;;;8.11;100.00;102142.47;4942187;28;20192;-77
2022/11/24 06:28:47;;;;;;;9.68;4.13;;;;;;;8.07;100.00;102139.63;4943612;28;20044;-79
2022/11/24 06:31:24;;;;;;;8.32;4.45;;;;;;;8.07;100.00;102145.66;4947010;28;20058;-78
2022/11/24 06:33:53;;;;;;;7.05;3.53;;;;;;;8.08;100.00;102146.53;4945714;28;21293;-78
2022/11/24 06:36:22;;;;;;;8.00;3.58;;;;;;;8.07;100.00;102155.97;4947085;28;20058;-78
2022/11/24 06:38:51;;;;;;;7.00;3.55;;;;;;;8.05;100.00;102162.72;4946110;28;20430;-77
2022/11/24 06:41:24;;;;;;;8.48;3.80;;;;;;;8.05;100.00;102157.56;4948154;28;20054;-77
2022/11/24 06:43:53;;;;;;;6.47;3.35;;;;;;;8.02;100.00;102156.47;4950508;28;20070;-76
2022/11/24 06:46:22;;;;;;;8.07;3.35;;;;;;;7.98;100.00;102155.41;4945365;28;20047;-76
2022/11/24 06:48:59;;;;;;;6.63;3.28;;;;;;;7.96;100.00;102167.28;4946998;28;20064;-78
2022/11/24 06:51:31;;;;;;;5.30;3.22;;;;;;;7.95;100.00;102168.09;4949996;28;20066;-79
2022/11/24 06:54:00;;;;;;;6.68;3.72;;;;;;;7.91;100.00;102167.00;4946414;28;20051;-77
2022/11/24 06:56:29;;;;;;;3.80;2.50;;;;;;;7.89;100.00;102167.72;4948735;28;20047;-84
2022/11/24 06:59:05;;;;;;;7.40;3.33;;;;;;;7.84;100.00;102156.22;4946826;28;20470;-86
2022/11/24 07:01:34;;;;;;;5.25;3.40;;;;;;;7.80;100.00;102165.44;4947886;28;20055;-84
2022/11/24 07:04:04;;;;;;;10.23;3.00;;;;;;;7.73;100.00;102160.69;4947275;28;20063;-84
2022/11/24 07:06:33;;;;;;;8.90;3.15;;;;;;;7.72;100.00;102157.25;4943803;28;20130;-85
2022/11/24 07:09:12;;;;;;;4.88;2.70;;;;;;;7.70;100.00;102161.41;4950574;28;20573;-82
2022/11/24 07:11:41;;;;;;;7.95;2.90;;;;;;;7.68;100.00;102165.56;4947844;28;20080;-81
2022/11/24 07:14:10;;;;;;;4.18;2.75;;;;;;;7.65;100.00;102160.22;4943975;28;20549;-82
2022/11/24 07:16:49;;;;;;;6.47;3.17;;;;;;;7.64;100.00;102162.69;4949774;28;20121;-81
2022/11/24 07:19:20;;;;;;;4.55;2.95;;;;;;;7.62;100.00;102165.16;4954621;28;20044;-81
2022/11/24 07:21:48;;;;;;;9.82;3.47;;;;;;;7.60;100.00;102164.16;4950025;28;20055;-81
2022/11/24 07:24:17;;;;;;;4.85;3.13;;;;;;;7.57;100.00;102161.41;4947580;28;20612;-80
2022/11/24 07:26:54;;;;;;;5.57;2.40;;;;;;;7.57;100.00;102155.38;4941887;28;20103;-81
2022/11/24 07:29:23;;;;;;;5.93;2.25;;;;;;;7.55;100.00;102163.88;4952867;28;20492;-80
2022/11/24 07:31:52;;;;;;;6.97;3.05;;;;;;;7.54;100.00;102161.22;4946321;28;20745;-81
2022/11/24 07:34:22;;;;;;;7.63;2.78;;;;;;;7.53;100.00;102162.00;4947407;28;20518;-82
2022/11/24 07:36:58;;;;;;;8.02;3.42;;;;;;;7.50;100.00;102160.13;4946414;28;20081;-81
2022/11/24 07:39:27;;;;;;;9.63;3.42;;;;;;;7.49;100.00;102157.44;4944948;28;20640;-81
2022/11/24 07:41:56;;;;;;;7.65;2.88;;;;;;;7.48;100.00;102155.66;4947174;28;20509;-81
2022/11/24 07:44:24;;;;;;;7.30;3.78;;;;;;;7.43;100.00;102157.06;4943028;28;20055;-80
2022/11/24 07:47:01;;;;;;;12.32;3.60;;;;;;;7.33;100.00;102150.44;4947326;28;20520;-81
2022/11/24 07:49:31;;;;;;;6.30;3.15;;;;;;;7.30;100.00;102160.50;4945837;28;20054;-80
2022/11/24 07:52:00;;;;;;;7.68;3.88;;;;;;;7.31;100.00;102162.31;4946875;28;20050;-80
2022/11/24 07:54:32;;;;;;;5.32;3.30;;;;;;;7.31;100.00;102168.34;4946859;28;20035;-81
2022/11/24 07:57:01;;;;;;;6.15;3.38;;;;;;;7.30;100.00;102165.66;4946260;28;20166;-81
2022/11/24 07:59:29;;;;;;;9.70;3.28;;;;;;;7.29;100.00;102172.50;4947259;28;20161;-80
2022/11/24 08:01:58;;;;;;;10.18;3.00;;;;;;;7.26;100.00;102166.25;4948926;28;20170;-80
2022/11/24 08:04:27;;;;;;;5.30;3.22;;;;;;;7.25;100.00;102167.94;4952101;28;20065;-81
2022/11/24 08:07:02;;;;;;;7.85;2.50;;;;;;;7.25;100.00;102167.94;4944030;28;20058;-82
2022/11/24 08:09:31;;;;;;;5.03;3.15;;;;;;;7.25;100.00;102174.75;4953972;28;20063;-81
2022/11/24 08:12:00;;;;;;;6.15;2.60;;;;;;;7.21;100.00;102171.09;4949703;28;20051;-83
2022/11/24 08:14:28;;;;;;;5.63;2.50;;;;;;;7.21;100.00;102172.78;4947487;28;20049;-81
2022/11/24 08:17:02;;;;;;;6.70;2.90;;;;;;;7.20;100.00;102160.72;4945024;28;20079;-81
2022/11/24 08:19:31;;;;;;;8.18;3.22;;;;;;;7.18;100.00;102160.59;4947622;28;20510;-80
2022/11/24 08:22:01;;;;;;;4.47;2.88;;;;;;;7.14;100.00;102158.59;4953497;28;20641;-80
2022/11/24 08:24:30;;;;;;;6.78;3.10;;;;;;;7.11;100.00;102155.84;4948384;28;20082;-81
2022/11/24 08:27:06;;;;;;;9.05;3.05;;;;;;;7.10;100.00;102159.19;4952357;28;20074;-81
2022/11/24 08:29:35;;;;;;;10.48;3.13;;;;;;;7.09;100.00;102165.13;4949576;28;20576;-82
2022/11/24 08:32:03;;;;;;;8.77;2.60;;;;;;;7.06;100.00;102170.97;4951403;28;20441;-80
2022/11/24 08:34:32;;;;;;;4.78;3.22;;;;;;;7.00;100.00;102165.41;4947488;28;20492;-79
2022/11/24 08:37:04;;;;;;;7.18;2.50;;;;;;;6.92;100.00;102171.75;4951306;28;20441;-81
2022/11/24 08:39:33;;;;;;;5.25;2.53;;;;;;;6.90;100.00;102181.03;4950148;28;20065;-80
2022/11/24 08:42:01;;;;;;;4.32;2.28;;;;;;;6.87;100.00;102180.81;4951166;28;20051;-79
2022/11/24 08:44:53;;;;;;;2.95;2.13;;;;;;;6.71;100.00;102174.66;4947639;28;20055;-79
2022/11/24 08:47:22;;;;;;;4.28;2.28;;;;;;;6.61;100.00;102173.91;4952737;28;20047;-81
2022/11/24 08:50:03;;;;;;;4.32;2.28;;;;;;;6.63;100.00;102172.34;4947677;28;20413;-81
2022/11/24 08:52:41;;;;;;;10.13;2.38;;;;;;;6.66;100.00;102167.41;4949462;28;20062;-82
2022/11/24 08:55:10;;;;;;;5.13;2.38;;;;;;;6.68;100.00;102168.41;4950188;28;20054;-82
2022/11/24 08:57:39;;;;;;;6.90;2.30;;;;;;;6.69;100.00;102168.53;4943976;28;20050;-82
2022/11/24 09:00:10;;;;;;;5.00;2.20;;;;;;;6.66;100.00;102167.41;4948733;28;20063;-79
2022/11/24 09:02:41;;;;;;;3.17;1.85;;;;;;;6.57;100.00;102167.66;4950136;28;20084;-80
2022/11/24 09:05:10;;;;;;;3.40;1.75;;;;;;;6.50;100.00;102158.66;4946575;28;20051;-82
2022/11/24 09:07:45;;;;;;;4.43;2.08;;;;;;;6.50;100.00;102161.25;4953796;28;20051;-81
2022/11/24 09:10:14;;;;;;;4.95;2.58;;;;;;;6.54;100.00;102171.72;4950426;28;20141;-82
2022/11/24 09:12:45;;;;;;;3.42;2.05;;;;;;;6.56;100.00;102176.19;4950226;28;20097;-83
2022/11/24 09:15:15;;;;;;;7.45;2.78;;;;;;;6.60;100.00;102177.28;4946315;28;20051;-83
2022/11/24 09:17:52;;;;;;;5.18;2.50;;;;;;;6.59;100.00;102176.38;4952039;28;20667;-82
2022/11/24 09:20:21;;;;;;;4.70;2.38;;;;;;;6.63;100.00;102187.78;4954402;28;20062;-85
2022/11/24 09:22:52;;;;;;;5.18;2.20;;;;;;;6.63;100.00;102182.63;4948877;28;20047;-83
2022/11/24 09:25:22;;;;;;;4.68;2.38;;;;;;;6.64;100.00;102184.41;4946743;28;20059;-83
2022/11/24 09:27:53;;;;;;;5.15;2.13;;;;;;;6.65;100.00;102186.22;4943531;28;20586;-82
2022/11/24 09:30:22;;;;;;;4.60;2.60;;;;;;;6.66;100.00;102182.84;4948653;28;20086;-82
2022/11/24 09:32:51;;;;;;;4.35;1.92;;;;;;;6.64;100.00;102190.47;4951032;28;20039;-81
2022/11/24 09:35:20;;;;;;;4.57;2.38;;;;;;;6.66;100.00;102193.13;4946827;28;20505;-81
2022/11/24 09:37:58;;;;;;;4.32;2.00;;;;;;;6.66;100.00;102193.13;4948296;28;20047;-82
2022/11/24 09:40:28;;;;;;;5.25;2.30;;;;;;;6.66;100.00;102182.84;4949756;28;20065;-81
2022/11/24 09:43:02;;;;;;;2.50;1.70;;;;;;;6.65;100.00;102181.94;4950595;28;20078;-81
2022/11/24 09:45:45;;;;;;;3.80;2.22;;;;;;;6.65;100.00;102191.34;4948875;28;20059;-81
2022/11/24 09:48:22;;;;;;;4.85;1.90;;;;;;;6.65;100.00;102186.22;4944751;28;20531;-82
2022/11/24 09:50:54;;;;;;;4.95;2.10;;;;;;;6.65;100.00;102186.22;4903777;29;20129;-81
2022/11/24 09:53:32;;;;;;;3.65;1.75;;;;;;;6.60;100.00;102185.91;4908265;29;20084;-81
2022/11/24 09:56:11;;;;;;;3.30;1.92;;;;;;;6.63;100.00;102185.22;4913344;29;20603;-81
2022/11/24 09:58:47;;;;;;;3.60;2.05;;;;;;;6.61;100.00;102187.66;4912880;29;20040;-81
2022/11/24 10:01:19;;;;;;;4.32;2.35;;;;;;;6.60;100.00;102190.16;4913108;29;20383;-82
2022/11/24 10:03:53;;;;;;;1.52;1.27;;;;;;;6.59;100.00;102188.34;4913351;29;20048;-82
2022/11/24 10:06:26;;;;;;;3.75;2.00;;;;;;;6.55;100.00;102183.78;4912559;29;20040;-81
2022/11/24 10:09:29;;;;;;;3.30;2.17;;;;;;;6.54;100.00;102182.00;4912740;29;20044;-82
2022/11/24 10:12:11;;;;;;;2.58;1.55;;;;;;;6.51;100.00;102180.13;4901631;29;20051;-81
2022/11/24 10:15:02;;;;;;;3.63;2.08;;;;;;;6.50;100.00;102181.81;4914983;29;20486;-82
2022/11/24 10:17:47;;;;;;;3.13;2.20;;;;;;;6.45;100.00;102185.72;4896464;29;20044;-81
2022/11/24 10:20:28;;;;;;;3.15;1.83;;;;;;;6.41;100.00;102186.28;4915021;29;20048;-81
2022/11/24 10:23:08;;;;;;;3.72;2.08;;;;;;;6.39;100.00;102190.47;4908896;29;20048;-82
2022/11/24 10:25:47;;;;;;;6.05;2.25;;;;;;;6.40;100.00;102196.50;4906517;29;20056;-82
2022/11/24 10:28:17;;;;;;;2.22;1.50;;;;;;;6.40;100.00;102210.22;4912367;29;20054;-84
2022/11/24 10:30:46;;;;;;;2.55;1.67;;;;;;;6.37;100.00;102220.31;4908667;29;20159;-82
2022/11/24 10:33:25;;;;;;;3.17;2.28;;;;;;;6.36;100.00;102210.78;4912050;29;20047;-82
2022/11/24 10:35:59;;;;;;;4.43;1.90;;;;;;;6.36;100.00;102204.78;4906716;29;20064;-83
2022/11/24 10:38:36;;;;;;;3.40;1.77;;;;;;;6.33;100.00;102208.03;4908303;29;20044;-82
2022/11/24 10:41:12;;;;;;;3.08;1.98;;;;;;;6.30;100.00;102205.25;4911149;29;20056;-83
2022/11/24 10:43:43;;;;;;;4.53;1.75;;;;;;;6.27;100.00;102202.44;4913065;29;20062;-83
2022/11/24 10:46:16;;;;;;;3.75;1.65;;;;;;;6.26;100.00;102204.13;4902711;29;20049;-83
2022/11/24 10:48:50;;;;;;;4.60;1.70;;;;;;;6.20;100.00;102187.38;4914798;28;20066;-82
2022/11/24 10:51:40;;;;;;;2.03;1.35;;;;;;;6.26;100.00;102200.66;4940754;28;20320;-82
2022/11/24 10:54:17;;;;;;;3.28;1.85;;;;;;;6.25;100.00;102201.44;4946832;28;20130;-82
2022/11/24 10:56:47;;;;;;;4.95;2.40;;;;;;;6.21;100.00;102197.78;4942693;28;20418;-81
2022/11/24 10:59:36;;;;;;;4.22;2.20;;;;;;;6.20;100.00;102195.09;4952705;28;20519;-82
2022/11/24 11:02:38;;;;;;;3.55;1.98;;;;;;;6.19;100.00;102191.63;4942905;28;20059;-82
2022/11/24 11:05:40;;;;;;;3.92;2.42;;;;;;;6.20;100.00;102190.84;4946533;28;20047;-83
2022/11/24 11:08:28;;;;;;;3.90;2.25;;;;;;;6.20;100.00;102184.81;4951426;28;20086;-83
2022/11/24 11:11:20;;;;;;;9.93;2.15;;;;;;;6.18;100.00;102187.25;4949923;28;20058;-82
2022/11/24 11:13:54;;;;;;;3.58;1.95;;;;;;;6.19;100.00;102188.19;4951225;28;20062;-82
2022/11/24 11:16:34;;;;;;;4.82;1.65;;;;;;;6.17;100.00;102188.06;4943821;28;20060;-82
2022/11/24 11:19:04;;;;;;;3.08;2.13;;;;;;;6.12;100.00;102196.25;4949800;28;20517;-82
2022/11/24 11:21:35;;;;;;;1.95;1.48;;;;;;;6.05;100.00;102190.66;4940445;28;20050;-82
2022/11/24 11:24:14;;;;;;;8.40;1.70;;;;;;;6.01;100.00;102188.66;4950916;28;20399;-82
2022/11/24 11:26:43;;;;;;;1.83;1.45;;;;;;;5.94;100.00;102191.56;4946822;28;20047;-81
2022/11/24 11:29:18;;;;;;;5.43;2.47;;;;;;;5.84;100.00;102186.50;4952853;28;20054;-81
2022/11/24 11:32:01;;;;;;;3.20;1.48;;;;;;;5.81;100.00;102196.59;4950063;28;20062;-82
2022/11/24 11:34:32;;;;;;;;;;;;;;;5.77;100.00;102194.56;4947908;28;20473;-82
2022/11/24 11:37:01;;;;;;;3.35;2.00;;;;;;;5.78;100.00;102198.94;4949732;28;20292;-82
2022/11/24 11:39:32;;;;;;;4.18;1.75;;;;;;;5.79;100.00;102201.59;4951625;28;20074;-82
2022/11/24 11:42:19;;;;;;;2.17;1.65;;;;;;;5.82;100.00;102196.69;4951519;28;20069;-83
2022/11/24 11:44:56;;;;;;;3.30;1.65;;;;;;;5.82;100.00;102201.84;4950823;28;20051;-82
2022/11/24 11:47:33;;;;;;;3.22;1.33;;;;;;;5.81;100.00;102200.03;4946642;28;20051;-82